Time;durP1;ratioP1;P1;durP2;ratioP2;P2;SDS_P1;SDS_P2;PMS_P1;PMS_P2;Temp;Humidity;BMP_temperature;BMP_pressure;BME280_temperature;BME280_humidity;BME280_pressure;Samples;Min_cycle;Max_cycle;Signal;HPM_P1;HPM_P2
2022/03/07 00:02:14;;;;;;;8.35;5.53;;;;;;;;;;4996204;28;92500;-75
2022/03/07 00:04:40;;;;;;;7.90;5.40;;;;;;;;;;4998576;28;93248;-75
2022/03/07 00:07:07;;;;;;;10.18;5.55;;;;;;;;;;5005665;28;92580;-75
2022/03/07 00:09:34;;;;;;;11.32;5.50;;;;;;;;;;4993938;28;91748;-75
2022/03/07 00:12:00;;;;;;;9.35;5.50;;;;;;;;;;5011000;28;93317;-75
2022/03/07 00:14:27;;;;;;;7.30;5.40;;;;;;;;;;4994304;28;94112;-75
2022/03/07 00:16:53;;;;;;;8.00;5.82;;;;;;;;;;4996516;28;96023;-75
2022/03/07 00:19:19;;;;;;;8.60;5.43;;;;;;;;;;5009586;28;93422;-75
2022/03/07 00:21:46;;;;;;;9.00;5.15;;;;;;;;;;5002881;28;92948;-75
2022/03/07 00:24:12;;;;;;;10.32;5.53;;;;;;;;;;4994218;28;93158;-75
2022/03/07 00:26:38;;;;;;;9.88;5.30;;;;;;;;;;5006317;28;93224;-75
2022/03/07 00:29:04;;;;;;;8.38;5.28;;;;;;;;;;5012222;28;93190;-75
2022/03/07 00:31:31;;;;;;;8.68;5.72;;;;;;;;;;5001870;28;93506;-75
2022/03/07 00:33:57;;;;;;;9.30;5.70;;;;;;;;;;4995681;28;93425;-75
2022/03/07 00:36:25;;;;;;;9.43;6.20;;;;;;;;;;4992184;28;92822;-75
2022/03/07 00:38:52;;;;;;;9.18;5.20;;;;;;;;;;4992478;28;93230;-75
2022/03/07 00:41:18;;;;;;;8.85;6.18;;;;;;;;;;4991074;28;94823;-75
2022/03/07 00:43:44;;;;;;;9.80;5.63;;;;;;;;;;5001605;28;95436;-75
2022/03/07 00:46:11;;;;;;;9.23;5.05;;;;;;;;;;5001787;28;96343;-75
2022/03/07 00:48:37;;;;;;;8.35;5.35;;;;;;;;;;5013486;28;92457;-75
2022/03/07 00:51:03;;;;;;;11.30;5.55;;;;;;;;;;4995512;28;93177;-75
2022/03/07 00:53:30;;;;;;;8.88;5.43;;;;;;;;;;5008082;28;93787;-75
2022/03/07 00:55:56;;;;;;;7.57;5.57;;;;;;;;;;5010342;28;94901;-75
2022/03/07 00:58:28;;;;;;;7.85;5.60;;;;;;;;;;5008983;28;92086;-75
2022/03/07 01:00:54;;;;;;;13.65;6.20;;;;;;;;;;4995233;28;92675;-75
2022/03/07 01:03:21;;;;;;;8.85;5.63;;;;;;;;;;5010951;28;93401;-75
2022/03/07 01:05:47;;;;;;;7.75;5.70;;;;;;;;;;5007951;28;94858;-75
2022/03/07 01:08:14;;;;;;;11.25;5.90;;;;;;;;;;5001555;28;92465;-75
2022/03/07 01:10:41;;;;;;;12.00;6.28;;;;;;;;;;5001213;28;93841;-75
2022/03/07 01:13:07;;;;;;;12.35;6.00;;;;;;;;;;4992892;28;92739;-75
2022/03/07 01:15:34;;;;;;;8.27;5.47;;;;;;;;;;4997104;28;93363;-75
2022/03/07 01:18:00;;;;;;;14.00;6.00;;;;;;;;;;5003110;28;93111;-75
2022/03/07 01:20:27;;;;;;;8.02;5.80;;;;;;;;;;5004620;28;92701;-75
2022/03/07 01:22:53;;;;;;;13.10;5.57;;;;;;;;;;5001263;28;93147;-75
2022/03/07 01:25:19;;;;;;;8.65;4.97;;;;;;;;;;4994033;28;93496;-75
2022/03/07 01:27:46;;;;;;;9.32;5.38;;;;;;;;;;5007395;28;92497;-75
2022/03/07 01:30:12;;;;;;;9.05;6.13;;;;;;;;;;5012902;28;94804;-75
2022/03/07 01:32:38;;;;;;;8.10;5.40;;;;;;;;;;5004352;28;92532;-75
2022/03/07 01:35:06;;;;;;;11.52;6.03;;;;;;;;;;4991697;28;94988;-75
2022/03/07 01:37:32;;;;;;;8.75;5.68;;;;;;;;;;4997889;28;93328;-75
2022/03/07 01:39:59;;;;;;;16.27;5.93;;;;;;;;;;5005342;28;92449;-75
2022/03/07 01:42:25;;;;;;;8.23;5.47;;;;;;;;;;4978500;28;93741;-75
2022/03/07 01:44:51;;;;;;;12.57;6.13;;;;;;;;;;4987162;28;93471;-75
2022/03/07 01:47:18;;;;;;;9.75;6.03;;;;;;;;;;5002816;28;91801;-75
2022/03/07 01:49:44;;;;;;;9.38;5.65;;;;;;;;;;4994697;28;93421;-75
2022/03/07 01:52:10;;;;;;;14.13;6.00;;;;;;;;;;4996526;28;93791;-75
2022/03/07 01:54:37;;;;;;;8.55;5.90;;;;;;;;;;5004180;28;94960;-75
2022/03/07 01:57:03;;;;;;;8.88;6.43;;;;;;;;;;5013698;28;93177;-75
2022/03/07 01:59:29;;;;;;;9.32;6.55;;;;;;;;;;5011034;28;93099;-75
2022/03/07 02:01:58;;;;;;;10.77;6.00;;;;;;;;;;4993928;28;94131;-75
2022/03/07 02:04:25;;;;;;;21.05;6.47;;;;;;;;;;4997703;28;93313;-75
2022/03/07 02:06:51;;;;;;;9.85;6.53;;;;;;;;;;5005332;28;93480;-75
2022/03/07 02:09:17;;;;;;;10.93;6.00;;;;;;;;;;4994143;28;92981;-75
2022/03/07 02:11:44;;;;;;;14.32;6.53;;;;;;;;;;5000920;28;92868;-75
2022/03/07 02:14:11;;;;;;;12.80;6.55;;;;;;;;;;5016714;28;92435;-76
2022/03/07 02:16:38;;;;;;;9.77;6.07;;;;;;;;;;5000560;28;94845;-75
2022/03/07 02:19:04;;;;;;;13.00;6.40;;;;;;;;;;4992614;28;94786;-75
2022/03/07 02:21:32;;;;;;;8.93;6.13;;;;;;;;;;5004701;28;95631;-75
2022/03/07 02:23:58;;;;;;;9.35;6.18;;;;;;;;;;5013662;28;95159;-75
2022/03/07 02:26:25;;;;;;;9.85;5.75;;;;;;;;;;5001847;28;92768;-75
2022/03/07 02:28:51;;;;;;;12.35;6.50;;;;;;;;;;5005564;28;93288;-75
2022/03/07 02:31:19;;;;;;;15.57;8.43;;;;;;;;;;5002598;28;93401;-75
2022/03/07 02:33:46;;;;;;;12.00;6.15;;;;;;;;;;4974594;28;92454;-75
2022/03/07 02:36:12;;;;;;;12.25;6.80;;;;;;;;;;4998918;28;93170;-75
2022/03/07 02:38:39;;;;;;;12.73;5.95;;;;;;;;;;4995122;28;92453;-76
2022/03/07 02:41:05;;;;;;;11.38;6.07;;;;;;;;;;4992853;28;93153;-75
2022/03/07 02:43:32;;;;;;;9.70;6.10;;;;;;;;;;5010599;28;95906;-75
2022/03/07 02:45:58;;;;;;;7.70;5.60;;;;;;;;;;5004806;28;93404;-75
2022/03/07 02:48:25;;;;;;;7.85;6.32;;;;;;;;;;5010503;28;93443;-75
2022/03/07 02:50:51;;;;;;;8.60;6.20;;;;;;;;;;4996799;28;93459;-75
2022/03/07 02:53:18;;;;;;;12.55;6.43;;;;;;;;;;5010256;28;92472;-75
2022/03/07 02:55:44;;;;;;;8.60;5.88;;;;;;;;;;5014701;28;93034;-75
2022/03/07 02:58:11;;;;;;;8.90;5.40;;;;;;;;;;4996620;28;92505;-75
2022/03/07 03:00:37;;;;;;;9.52;6.25;;;;;;;;;;4995845;28;93125;-75
2022/03/07 03:03:03;;;;;;;10.68;6.05;;;;;;;;;;5005492;28;96232;-76
2022/03/07 03:05:30;;;;;;;11.20;6.18;;;;;;;;;;4990336;28;93366;-75
2022/03/07 03:07:56;;;;;;;11.00;5.88;;;;;;;;;;4992041;28;94813;-75
2022/03/07 03:10:23;;;;;;;9.57;5.82;;;;;;;;;;5008343;28;93624;-75
2022/03/07 03:12:49;;;;;;;10.45;5.88;;;;;;;;;;4996565;28;92872;-75
2022/03/07 03:15:15;;;;;;;8.85;5.75;;;;;;;;;;5009485;28;92937;-76
2022/03/07 03:17:42;;;;;;;9.73;5.65;;;;;;;;;;5008928;28;93911;-76
2022/03/07 03:20:12;;;;;;;6.82;4.82;;;;;;;;;;5002970;28;93044;-75
2022/03/07 03:22:39;;;;;;;16.05;5.65;;;;;;;;;;4982273;28;93484;-76
2022/03/07 03:25:06;;;;;;;11.00;5.85;;;;;;;;;;5003223;28;91993;-75
2022/03/07 03:27:33;;;;;;;12.20;5.55;;;;;;;;;;4996622;28;92527;-75
2022/03/07 03:29:59;;;;;;;11.65;5.88;;;;;;;;;;5001538;28;93109;-75
2022/03/07 03:32:26;;;;;;;8.93;5.32;;;;;;;;;;4992122;28;95196;-76
2022/03/07 03:34:55;;;;;;;7.47;4.88;;;;;;;;;;4992211;28;95544;-76
2022/03/07 03:37:22;;;;;;;10.82;6.38;;;;;;;;;;5004646;28;93634;-76
2022/03/07 03:39:48;;;;;;;9.10;6.38;;;;;;;;;;5000244;28;94567;-76
2022/03/07 03:42:14;;;;;;;10.75;5.95;;;;;;;;;;4993591;28;93152;-76
2022/03/07 03:44:40;;;;;;;10.75;6.00;;;;;;;;;;4996226;28;93394;-75
2022/03/07 03:47:07;;;;;;;13.02;6.43;;;;;;;;;;4995097;28;93102;-76
2022/03/07 03:49:34;;;;;;;11.13;5.75;;;;;;;;;;4994080;28;93030;-76
2022/03/07 03:52:01;;;;;;;13.88;6.32;;;;;;;;;;4993583;28;92475;-75
2022/03/07 03:54:27;;;;;;;11.70;6.72;;;;;;;;;;4996008;28;93697;-76
2022/03/07 03:56:53;;;;;;;10.05;6.70;;;;;;;;;;5006609;28;96013;-76
2022/03/07 03:59:19;;;;;;;14.40;6.70;;;;;;;;;;4997220;28;92457;-76
2022/03/07 04:01:46;;;;;;;13.10;6.28;;;;;;;;;;5005197;28;93580;-76
2022/03/07 04:04:13;;;;;;;15.25;6.30;;;;;;;;;;4992634;28;92389;-76
2022/03/07 04:06:40;;;;;;;9.85;6.55;;;;;;;;;;4997587;28;94350;-76
2022/03/07 04:09:22;;;;;;;10.80;6.53;;;;;;;;;;5010169;28;93960;-76
2022/03/07 04:11:49;;;;;;;10.55;6.38;;;;;;;;;;5003060;28;92758;-76
2022/03/07 04:14:15;;;;;;;12.02;6.32;;;;;;;;;;4994906;28;93324;-75
2022/03/07 04:16:42;;;;;;;11.88;6.78;;;;;;;;;;4997742;28;93720;-76
2022/03/07 04:19:09;;;;;;;10.15;6.03;;;;;;;;;;5001521;28;92485;-76
2022/03/07 04:21:36;;;;;;;10.93;6.57;;;;;;;;;;4998662;28;95002;-76
2022/03/07 04:24:03;;;;;;;10.75;6.82;;;;;;;;;;4995611;28;93986;-76
2022/03/07 04:26:29;;;;;;;8.43;6.00;;;;;;;;;;4992741;28;93482;-76
2022/03/07 04:28:55;;;;;;;8.75;6.18;;;;;;;;;;4990361;28;92505;-76
2022/03/07 04:31:22;;;;;;;13.60;6.20;;;;;;;;;;5002561;28;92680;-76
2022/03/07 04:33:49;;;;;;;13.20;6.35;;;;;;;;;;5012904;28;92665;-76
2022/03/07 04:36:18;;;;;;;6.90;5.70;;;;;;;;;;5011033;28;94514;-76
2022/03/07 04:38:45;;;;;;;11.85;6.50;;;;;;;;;;4993407;28;93213;-76
2022/03/07 04:41:12;;;;;;;8.93;6.63;;;;;;;;;;4998472;28;92634;-76
2022/03/07 04:43:38;;;;;;;10.35;6.43;;;;;;;;;;4992499;28;93448;-76
2022/03/07 04:46:06;;;;;;;9.82;6.80;;;;;;;;;;5003118;28;95333;-76
2022/03/07 04:48:33;;;;;;;14.45;6.40;;;;;;;;;;5012261;28;93234;-76
2022/03/07 04:50:59;;;;;;;10.93;6.63;;;;;;;;;;5005978;28;92434;-76
2022/03/07 04:53:25;;;;;;;9.15;6.38;;;;;;;;;;4992680;28;93229;-76
2022/03/07 04:55:51;;;;;;;13.50;6.78;;;;;;;;;;4990927;28;93251;-76
2022/03/07 04:58:18;;;;;;;13.00;6.80;;;;;;;;;;4987555;28;93305;-76
2022/03/07 05:00:44;;;;;;;13.25;6.32;;;;;;;;;;4988824;28;92966;-76
2022/03/07 05:03:11;;;;;;;18.33;6.57;;;;;;;;;;5000383;28;93457;-76
2022/03/07 05:05:38;;;;;;;12.70;6.65;;;;;;;;;;5016040;28;92534;-76
2022/03/07 05:08:04;;;;;;;11.38;7.20;;;;;;;;;;4995360;28;94623;-76
2022/03/07 05:10:30;;;;;;;15.02;7.25;;;;;;;;;;5001270;28;96926;-76
2022/03/07 05:12:57;;;;;;;9.07;6.47;;;;;;;;;;5001583;28;95433;-76
2022/03/07 05:15:23;;;;;;;8.93;6.28;;;;;;;;;;4992055;28;93497;-75
2022/03/07 05:17:53;;;;;;;10.18;6.78;;;;;;;;;;5009857;28;92544;-75
2022/03/07 05:20:20;;;;;;;10.67;6.73;;;;;;;;;;5009009;28;93061;-76
2022/03/07 05:23:07;;;;;;;8.52;6.10;;;;;;;;;;4986174;28;95233;-76
2022/03/07 05:25:33;;;;;;;10.05;6.57;;;;;;;;;;4991032;28;92510;-76
2022/03/07 05:27:59;;;;;;;11.35;6.72;;;;;;;;;;5001174;28;93013;-76
2022/03/07 05:30:26;;;;;;;14.15;6.82;;;;;;;;;;5009903;28;92412;-75
2022/03/07 05:32:53;;;;;;;10.48;6.72;;;;;;;;;;4997653;28;93959;-76
2022/03/07 05:35:20;;;;;;;9.23;6.07;;;;;;;;;;5011846;28;96474;-76
2022/03/07 05:37:47;;;;;;;9.77;6.45;;;;;;;;;;5013186;28;92488;-75
2022/03/07 05:40:13;;;;;;;13.27;6.18;;;;;;;;;;5000500;28;93291;-76
2022/03/07 05:42:41;;;;;;;9.68;6.53;;;;;;;;;;4996097;28;93434;-76
2022/03/07 05:45:08;;;;;;;13.38;7.20;;;;;;;;;;4995959;28;92561;-76
2022/03/07 05:47:35;;;;;;;10.43;6.53;;;;;;;;;;5012663;28;93038;-76
2022/03/07 05:50:02;;;;;;;20.98;6.82;;;;;;;;;;5016203;28;94809;-76
2022/03/07 05:52:28;;;;;;;12.05;6.90;;;;;;;;;;5001249;28;93197;-75
2022/03/07 05:54:54;;;;;;;11.20;7.43;;;;;;;;;;4994694;28;93162;-76
2022/03/07 05:57:21;;;;;;;13.40;6.50;;;;;;;;;;5005723;28;92537;-76
2022/03/07 05:59:47;;;;;;;15.10;7.07;;;;;;;;;;5007758;28;95079;-75
2022/03/07 06:02:13;;;;;;;10.65;6.68;;;;;;;;;;5006565;28;93242;-76
2022/03/07 06:04:41;;;;;;;12.60;6.53;;;;;;;;;;5014363;28;92684;-76
2022/03/07 06:07:08;;;;;;;7.72;5.80;;;;;;;;;;4997566;28;93647;-76
2022/03/07 06:09:34;;;;;;;13.02;7.07;;;;;;;;;;5008267;28;93458;-76
2022/03/07 06:12:00;;;;;;;11.82;6.43;;;;;;;;;;5003801;28;92442;-76
2022/03/07 06:14:27;;;;;;;12.18;6.45;;;;;;;;;;4995196;28;93213;-76
2022/03/07 06:16:53;;;;;;;10.25;7.00;;;;;;;;;;4993693;28;92746;-75
2022/03/07 06:19:19;;;;;;;11.77;6.95;;;;;;;;;;4995491;28;92428;-76
2022/03/07 06:21:46;;;;;;;8.85;6.57;;;;;;;;;;4994562;28;93525;-76
2022/03/07 06:24:12;;;;;;;11.45;7.07;;;;;;;;;;4995987;28;94850;-76
2022/03/07 06:26:38;;;;;;;27.63;7.93;;;;;;;;;;4993593;28;95574;-76
2022/03/07 06:29:06;;;;;;;22.38;7.95;;;;;;;;;;4994498;28;93240;-74
2022/03/07 06:31:32;;;;;;;28.92;7.55;;;;;;;;;;5004029;28;92418;-74
2022/03/07 06:33:58;;;;;;;26.25;7.13;;;;;;;;;;4998199;28;93231;-74
2022/03/07 06:36:25;;;;;;;24.25;7.57;;;;;;;;;;4995066;28;93096;-74
2022/03/07 06:38:51;;;;;;;19.90;6.97;;;;;;;;;;4993930;28;93129;-74
2022/03/07 06:41:18;;;;;;;28.90;9.48;;;;;;;;;;4997457;28;91887;-74
2022/03/07 06:43:44;;;;;;;14.43;8.23;;;;;;;;;;5014609;28;92440;-75
2022/03/07 06:46:10;;;;;;;18.65;8.02;;;;;;;;;;5004983;28;93260;-75
2022/03/07 06:48:37;;;;;;;17.00;9.48;;;;;;;;;;4991823;28;98683;-76
2022/03/07 06:51:04;;;;;;;22.77;12.40;;;;;;;;;;4995746;28;92548;-76
2022/03/07 06:53:30;;;;;;;26.40;14.02;;;;;;;;;;4997130;28;93187;-76
2022/03/07 06:55:56;;;;;;;30.52;14.38;;;;;;;;;;5011340;28;94320;-76
2022/03/07 06:58:22;;;;;;;26.65;13.70;;;;;;;;;;5010219;28;93084;-76
2022/03/07 07:00:49;;;;;;;26.42;12.60;;;;;;;;;;4994466;28;93624;-76
2022/03/07 07:03:15;;;;;;;19.08;10.48;;;;;;;;;;4993341;28;92412;-76
2022/03/07 07:05:42;;;;;;;15.32;9.27;;;;;;;;;;5010841;28;93330;-76
2022/03/07 07:08:08;;;;;;;16.23;9.35;;;;;;;;;;5007475;28;92858;-76
2022/03/07 07:10:35;;;;;;;14.43;9.07;;;;;;;;;;5010780;28;92508;-75
2022/03/07 07:13:01;;;;;;;18.48;9.40;;;;;;;;;;4991082;28;95090;-75
2022/03/07 07:15:28;;;;;;;17.63;9.63;;;;;;;;;;5010403;28;93350;-76
2022/03/07 07:17:54;;;;;;;25.30;10.50;;;;;;;;;;4999708;28;93001;-75
2022/03/07 07:20:20;;;;;;;18.10;9.77;;;;;;;;;;5002823;28;93455;-74
2022/03/07 07:22:47;;;;;;;20.73;10.88;;;;;;;;;;5000019;28;92503;-74
2022/03/07 07:25:13;;;;;;;26.15;12.15;;;;;;;;;;5012695;28;93778;-73
2022/03/07 07:27:39;;;;;;;24.35;10.23;;;;;;;;;;4994823;28;96541;-74
2022/03/07 07:30:07;;;;;;;20.08;9.38;;;;;;;;;;4992361;28;92252;-74
2022/03/07 07:32:34;;;;;;;14.60;8.80;;;;;;;;;;5011258;28;94097;-74
2022/03/07 07:35:00;;;;;;;14.52;9.52;;;;;;;;;;5011784;28;93213;-73
2022/03/07 07:37:27;;;;;;;27.67;9.88;;;;;;;;;;5014690;28;94797;-73
2022/03/07 07:39:53;;;;;;;17.45;9.50;;;;;;;;;;5011186;28;96189;-74
2022/03/07 07:42:19;;;;;;;23.48;9.75;;;;;;;;;;4993729;28;93368;-73
2022/03/07 07:44:45;;;;;;;14.35;9.38;;;;;;;;;;4993360;28;93046;-73
2022/03/07 07:47:12;;;;;;;15.77;10.65;;;;;;;;;;4991791;28;93352;-74
2022/03/07 07:49:38;;;;;;;18.55;10.38;;;;;;;;;;4993203;28;92425;-75
2022/03/07 07:52:05;;;;;;;17.88;11.20;;;;;;;;;;4992637;28;93612;-74
2022/03/07 07:54:31;;;;;;;16.70;10.98;;;;;;;;;;4993316;28;92761;-73
2022/03/07 07:56:58;;;;;;;16.25;11.40;;;;;;;;;;4991443;28;93483;-73
2022/03/07 07:59:24;;;;;;;25.38;11.20;;;;;;;;;;4995716;28;93298;-74
2022/03/07 08:01:50;;;;;;;17.75;11.27;;;;;;;;;;4998818;28;95041;-73
2022/03/07 08:04:17;;;;;;;21.10;11.52;;;;;;;;;;5004258;28;97506;-74
2022/03/07 08:06:43;;;;;;;24.05;11.95;;;;;;;;;;4992344;28;93401;-74
2022/03/07 08:09:09;;;;;;;26.85;12.68;;;;;;;;;;4980404;28;92476;-73
2022/03/07 08:11:36;;;;;;;20.35;12.27;;;;;;;;;;5001679;28;95732;-74
2022/03/07 08:14:02;;;;;;;23.10;11.98;;;;;;;;;;4993129;28;94766;-73
2022/03/07 08:16:28;;;;;;;21.92;11.73;;;;;;;;;;4994461;28;92484;-73
2022/03/07 08:18:55;;;;;;;21.70;12.07;;;;;;;;;;4995205;28;92992;-73
2022/03/07 08:21:25;;;;;;;15.18;11.57;;;;;;;;;;4999230;28;94832;-76
2022/03/07 08:23:54;;;;;;;17.45;10.98;;;;;;;;;;4980245;28;93325;-76
2022/03/07 08:26:22;;;;;;;18.90;12.07;;;;;;;;;;4988414;28;95937;-76
2022/03/07 08:28:48;;;;;;;25.08;11.90;;;;;;;;;;4991093;28;92842;-75
2022/03/07 08:31:15;;;;;;;20.42;10.55;;;;;;;;;;4991799;28;92844;-75
2022/03/07 08:33:41;;;;;;;19.20;10.85;;;;;;;;;;5008817;28;92370;-78
2022/03/07 08:36:07;;;;;;;18.20;11.38;;;;;;;;;;5023841;28;92870;-78
2022/03/07 08:38:34;;;;;;;19.35;11.98;;;;;;;;;;5008779;28;93340;-78
2022/03/07 08:41:01;;;;;;;16.55;11.18;;;;;;;;;;5010183;28;93658;-75
2022/03/07 08:43:27;;;;;;;18.23;11.23;;;;;;;;;;5015984;28;91642;-75
2022/03/07 08:45:54;;;;;;;25.33;12.35;;;;;;;;;;5003376;28;93472;-75
2022/03/07 08:48:22;;;;;;;18.90;11.18;;;;;;;;;;4991946;28;92492;-78
2022/03/07 08:50:48;;;;;;;19.58;10.95;;;;;;;;;;4990000;28;94904;-78
2022/03/07 08:53:18;;;;;;;25.55;10.30;;;;;;;;;;4991604;28;93042;-78
2022/03/07 08:55:44;;;;;;;21.15;11.02;;;;;;;;;;4995103;28;92923;-77
2022/03/07 08:58:19;;;;;;;13.07;9.50;;;;;;;;;;4988547;28;93176;-74
2022/03/07 09:00:45;;;;;;;16.63;10.40;;;;;;;;;;4990264;28;93172;-73
2022/03/07 09:03:11;;;;;;;14.02;10.30;;;;;;;;;;4990537;28;92558;-75
2022/03/07 09:05:38;;;;;;;15.65;10.57;;;;;;;;;;5008975;28;93179;-75
2022/03/07 09:08:04;;;;;;;27.88;11.55;;;;;;;;;;4993133;28;92108;-75
2022/03/07 09:10:30;;;;;;;21.42;11.23;;;;;;;;;;4995218;28;93123;-75
2022/03/07 09:12:57;;;;;;;16.55;10.50;;;;;;;;;;4994604;28;93293;-73
2022/03/07 09:15:23;;;;;;;17.15;10.57;;;;;;;;;;4986205;28;94788;-75
2022/03/07 09:17:49;;;;;;;11.98;9.88;;;;;;;;;;4993927;28;94426;-75
2022/03/07 09:20:17;;;;;;;15.57;9.30;;;;;;;;;;5008523;28;93252;-75
2022/03/07 09:22:44;;;;;;;11.98;9.65;;;;;;;;;;4995927;28;92485;-75
2022/03/07 09:25:10;;;;;;;18.30;10.10;;;;;;;;;;4998346;28;93194;-77
2022/03/07 09:27:37;;;;;;;17.02;9.73;;;;;;;;;;4993655;28;92489;-74
2022/03/07 09:30:05;;;;;;;12.88;9.40;;;;;;;;;;4994889;28;92996;-74
2022/03/07 09:32:31;;;;;;;15.93;9.60;;;;;;;;;;4995447;28;92702;-74
2022/03/07 09:34:58;;;;;;;18.70;10.30;;;;;;;;;;4994634;28;93251;-75
2022/03/07 09:37:24;;;;;;;18.55;8.88;;;;;;;;;;4996326;28;93043;-72
2022/03/07 09:39:50;;;;;;;12.43;8.95;;;;;;;;;;5000977;28;95885;-72
2022/03/07 09:42:17;;;;;;;12.15;8.32;;;;;;;;;;4994795;28;92637;-72
2022/03/07 09:44:43;;;;;;;12.15;7.80;;;;;;;;;;5010882;28;93427;-73
2022/03/07 09:47:09;;;;;;;12.65;7.25;;;;;;;;;;4998596;28;93789;-73
2022/03/07 09:49:36;;;;;;;10.13;6.72;;;;;;;;;;4991323;28;93076;-72
2022/03/07 09:52:03;;;;;;;12.20;6.82;;;;;;;;;;4976868;28;93336;-73
2022/03/07 09:54:29;;;;;;;12.98;6.47;;;;;;;;;;4985680;28;92619;-71
2022/03/07 09:56:55;;;;;;;11.25;6.55;;;;;;;;;;4992518;28;93130;-74
2022/03/07 09:59:22;;;;;;;8.18;6.25;;;;;;;;;;5013059;28;94259;-75
2022/03/07 10:02:05;;;;;;;10.35;6.18;;;;;;;;;;5012573;28;92944;-74
2022/03/07 10:04:38;;;;;;;8.10;5.50;;;;;;;;;;5011089;28;94970;-74
2022/03/07 10:07:04;;;;;;;11.27;6.85;;;;;;;;;;4997896;28;93637;-75
2022/03/07 10:09:30;;;;;;;9.05;6.30;;;;;;;;;;4997296;28;92496;-75
2022/03/07 10:12:03;;;;;;;9.73;5.75;;;;;;;;;;4994947;28;93509;-72
2022/03/07 10:14:37;;;;;;;10.30;6.13;;;;;;;;;;5005546;28;92425;-74
2022/03/07 10:17:04;;;;;;;8.00;5.15;;;;;;;;;;4995534;28;93133;-74
2022/03/07 10:19:30;;;;;;;10.02;5.00;;;;;;;;;;5008806;28;94444;-73
2022/03/07 10:21:56;;;;;;;8.93;5.80;;;;;;;;;;5014776;28;91721;-71
2022/03/07 10:24:37;;;;;;;15.40;9.25;;;;;;;;;;5012803;28;93895;-72
2022/03/07 10:27:03;;;;;;;8.68;6.80;;;;;;;;;;4998440;28;93744;-72
2022/03/07 10:29:30;;;;;;;7.30;5.22;;;;;;;;;;4993498;28;95847;-72
2022/03/07 10:31:57;;;;;;;9.25;7.00;;;;;;;;;;4996080;28;95629;-73
2022/03/07 10:34:25;;;;;;;8.00;5.68;;;;;;;;;;4983189;28;92550;-73
2022/03/07 10:36:52;;;;;;;6.45;4.70;;;;;;;;;;5014144;28;94277;-73
2022/03/07 10:39:22;;;;;;;6.72;4.43;;;;;;;;;;5005601;28;93531;-73
2022/03/07 10:41:48;;;;;;;7.93;5.30;;;;;;;;;;4994041;28;92600;-73
2022/03/07 10:44:24;;;;;;;6.07;4.57;;;;;;;;;;4994843;28;93142;-73
2022/03/07 10:46:50;;;;;;;6.82;4.60;;;;;;;;;;4994373;28;93182;-73
2022/03/07 10:49:17;;;;;;;9.93;5.38;;;;;;;;;;4992226;28;92666;-73
2022/03/07 10:51:50;;;;;;;6.70;5.15;;;;;;;;;;4991055;28;92472;-73
2022/03/07 10:54:18;;;;;;;6.05;4.95;;;;;;;;;;4982377;28;96964;-73
2022/03/07 10:56:49;;;;;;;6.00;4.40;;;;;;;;;;4972524;28;96839;-73
2022/03/07 10:59:24;;;;;;;5.95;4.38;;;;;;;;;;4981701;28;92865;-73
2022/03/07 11:01:57;;;;;;;4.72;3.85;;;;;;;;;;4978249;28;92939;-74
2022/03/07 11:04:24;;;;;;;10.02;4.25;;;;;;;;;;4991886;28;94276;-74
2022/03/07 11:06:51;;;;;;;4.88;3.70;;;;;;;;;;5009114;28;93616;-73
2022/03/07 11:09:17;;;;;;;3.42;3.13;;;;;;;;;;4994826;28;92573;-74
2022/03/07 11:11:44;;;;;;;7.00;3.40;;;;;;;;;;4998562;28;93119;-74
2022/03/07 11:14:11;;;;;;;4.45;3.50;;;;;;;;;;4991652;28;93721;-74
2022/03/07 11:16:38;;;;;;;5.10;3.78;;;;;;;;;;4997016;28;92497;-73
2022/03/07 11:19:06;;;;;;;9.48;4.13;;;;;;;;;;4970736;28;95141;-73
2022/03/07 11:21:32;;;;;;;6.10;3.50;;;;;;;;;;4976421;28;92659;-73
2022/03/07 11:23:58;;;;;;;4.68;3.35;;;;;;;;;;4995474;28;93101;-73
2022/03/07 11:26:26;;;;;;;5.70;4.13;;;;;;;;;;4995044;28;94602;-73
2022/03/07 11:28:53;;;;;;;9.13;4.63;;;;;;;;;;5010963;28;92659;-73
2022/03/07 11:31:23;;;;;;;6.82;4.35;;;;;;;;;;5011939;28;93340;-73
2022/03/07 11:33:50;;;;;;;4.63;3.33;;;;;;;;;;5012772;28;94967;-73
2022/03/07 11:36:18;;;;;;;4.72;3.00;;;;;;;;;;5013383;28;92094;-73
2022/03/07 11:38:59;;;;;;;9.35;3.92;;;;;;;;;;4998174;28;93726;-73
2022/03/07 11:41:26;;;;;;;4.30;2.90;;;;;;;;;;4993037;28;93945;-72
2022/03/07 11:44:10;;;;;;;4.50;2.75;;;;;;;;;;4988887;28;95562;-72
2022/03/07 11:46:41;;;;;;;5.00;2.95;;;;;;;;;;4993426;28;93529;-71
2022/03/07 11:49:09;;;;;;;4.43;2.72;;;;;;;;;;4990374;28;92591;-72
2022/03/07 11:51:37;;;;;;;3.28;2.63;;;;;;;;;;4992882;28;93290;-71
2022/03/07 11:54:03;;;;;;;5.15;2.58;;;;;;;;;;4992429;28;93531;-71
2022/03/07 11:56:34;;;;;;;5.22;2.55;;;;;;;;;;4993807;28;93009;-71
2022/03/07 11:59:03;;;;;;;3.25;2.50;;;;;;;;;;5005269;28;94290;-72
2022/03/07 12:01:31;;;;;;;3.93;2.53;;;;;;;;;;5004853;28;91947;-72
2022/03/07 12:04:16;;;;;;;4.72;2.80;;;;;;;;;;5009829;28;93586;-71
2022/03/07 12:06:47;;;;;;;5.07;3.22;;;;;;;;;;5003742;28;92704;-71
2022/03/07 12:09:26;;;;;;;7.43;2.90;;;;;;;;;;5011235;28;94970;-71
2022/03/07 12:12:09;;;;;;;3.22;2.88;;;;;;;;;;4997165;28;95757;-71
2022/03/07 12:14:37;;;;;;;6.53;3.40;;;;;;;;;;5012542;28;94569;-71
2022/03/07 12:17:17;;;;;;;4.85;3.28;;;;;;;;;;4994091;28;92505;-71
2022/03/07 12:19:44;;;;;;;4.13;3.13;;;;;;;;;;4993011;28;93257;-71
2022/03/07 12:22:11;;;;;;;3.40;3.10;;;;;;;;;;5014661;28;93450;-71
2022/03/07 12:24:39;;;;;;;3.53;3.22;;;;;;;;;;5012652;28;93264;-72
2022/03/07 12:27:06;;;;;;;6.50;3.90;;;;;;;;;;4998351;28;92756;-72
2022/03/07 12:29:33;;;;;;;3.92;3.38;;;;;;;;;;4993092;28;92476;-71
2022/03/07 12:32:01;;;;;;;5.15;3.85;;;;;;;;;;5002059;28;93980;-71
2022/03/07 12:34:28;;;;;;;16.42;4.63;;;;;;;;;;4989637;28;95905;-71
2022/03/07 12:37:08;;;;;;;6.75;4.10;;;;;;;;;;4992190;28;92801;-71
2022/03/07 12:39:47;;;;;;;6.15;3.50;;;;;;;;;;5003995;28;94224;-72
2022/03/07 12:42:15;;;;;;;7.75;4.20;;;;;;;;;;5003015;28;94044;-72
2022/03/07 12:44:41;;;;;;;8.70;3.83;;;;;;;;;;5007754;28;92551;-72
2022/03/07 12:47:08;;;;;;;6.07;3.67;;;;;;;;;;4993678;28;95552;-72
2022/03/07 12:49:35;;;;;;;5.70;3.72;;;;;;;;;;4992481;28;93000;-71
2022/03/07 12:52:04;;;;;;;7.45;4.00;;;;;;;;;;4996925;28;93059;-71
2022/03/07 12:54:35;;;;;;;5.95;4.30;;;;;;;;;;4998529;28;92463;-71
2022/03/07 12:57:02;;;;;;;5.93;3.72;;;;;;;;;;4993485;28;92754;-71
2022/03/07 12:59:30;;;;;;;6.53;4.20;;;;;;;;;;4984692;28;95041;-73
2022/03/07 13:01:56;;;;;;;5.68;3.83;;;;;;;;;;4983966;28;96508;-72
2022/03/07 13:04:27;;;;;;;8.35;3.72;;;;;;;;;;4986375;28;93886;-71
2022/03/07 13:06:55;;;;;;;7.68;3.83;;;;;;;;;;4981705;28;93792;-71
2022/03/07 13:09:31;;;;;;;4.47;3.88;;;;;;;;;;4983101;28;92821;-70
2022/03/07 13:12:00;;;;;;;6.53;3.72;;;;;;;;;;4979461;28;94302;-71
2022/03/07 13:14:28;;;;;;;4.13;3.72;;;;;;;;;;4988176;28;94493;-72
2022/03/07 13:17:02;;;;;;;4.15;3.65;;;;;;;;;;4995843;28;91735;-72
2022/03/07 13:19:28;;;;;;;6.80;4.20;;;;;;;;;;5010774;28;92855;-72
2022/03/07 13:21:55;;;;;;;5.88;3.90;;;;;;;;;;5009595;28;93226;-72
2022/03/07 13:24:23;;;;;;;4.93;3.90;;;;;;;;;;5009688;28;95590;-71
2022/03/07 13:27:00;;;;;;;5.35;4.30;;;;;;;;;;4999642;28;95640;-72
2022/03/07 13:29:26;;;;;;;5.28;4.15;;;;;;;;;;5005272;28;92938;-73
2022/03/07 13:31:55;;;;;;;6.10;3.70;;;;;;;;;;5011625;28;93481;-73
2022/03/07 13:34:21;;;;;;;4.88;4.07;;;;;;;;;;5011140;28;93249;-72
2022/03/07 13:36:51;;;;;;;4.35;3.95;;;;;;;;;;5011419;28;92819;-72
2022/03/07 13:39:24;;;;;;;5.78;3.90;;;;;;;;;;4999736;28;95742;-72
2022/03/07 13:41:56;;;;;;;6.15;4.13;;;;;;;;;;4991797;28;93048;-72
2022/03/07 13:44:23;;;;;;;7.30;3.55;;;;;;;;;;5000776;28;92835;-72
2022/03/07 13:46:55;;;;;;;6.75;3.85;;;;;;;;;;5009352;28;93340;-72
2022/03/07 13:49:24;;;;;;;7.43;4.05;;;;;;;;;;5011275;28;95819;-71
2022/03/07 13:51:51;;;;;;;5.65;3.47;;;;;;;;;;5014586;28;95564;-71
2022/03/07 13:54:17;;;;;;;6.85;3.90;;;;;;;;;;4996456;28;92763;-71
2022/03/07 13:56:43;;;;;;;7.28;3.50;;;;;;;;;;4995724;28;92435;-71
2022/03/07 13:59:11;;;;;;;5.43;3.72;;;;;;;;;;5003978;28;94518;-71
2022/03/07 14:01:37;;;;;;;11.45;4.35;;;;;;;;;;4975198;28;93633;-72
2022/03/07 14:04:13;;;;;;;4.75;3.53;;;;;;;;;;4974098;28;92486;-72
2022/03/07 14:06:41;;;;;;;5.22;3.67;;;;;;;;;;4994536;28;93040;-74
2022/03/07 14:09:11;;;;;;;8.85;4.07;;;;;;;;;;5002903;28;94150;-72
2022/03/07 14:11:38;;;;;;;9.40;3.65;;;;;;;;;;5018292;28;93040;-72
2022/03/07 14:14:15;;;;;;;4.93;3.80;;;;;;;;;;5011328;28;96645;-72
2022/03/07 14:16:46;;;;;;;7.03;3.90;;;;;;;;;;5010442;28;92603;-72
2022/03/07 14:19:13;;;;;;;4.05;3.40;;;;;;;;;;5014850;28;93458;-73
2022/03/07 14:21:40;;;;;;;4.00;3.55;;;;;;;;;;4997148;28;93253;-74
2022/03/07 14:24:07;;;;;;;4.63;3.17;;;;;;;;;;4999957;28;92629;-72
2022/03/07 14:26:33;;;;;;;6.63;4.10;;;;;;;;;;5011716;28;93171;-72
2022/03/07 14:29:05;;;;;;;6.68;3.22;;;;;;;;;;5013536;28;93358;-73
2022/03/07 14:31:32;;;;;;;5.05;3.88;;;;;;;;;;5000840;28;91876;-73
2022/03/07 14:33:59;;;;;;;3.78;3.47;;;;;;;;;;5002598;28;92531;-73
2022/03/07 14:36:25;;;;;;;6.35;3.50;;;;;;;;;;5010825;28;92550;-73